Time,TemperatureF,DewpointF,PressureIn,WindDirection,WindDirectionDegrees,WindSpeedMPH,WindSpeedGustMPH,Humidity,HourlyPrecipIn,Conditions,Clouds,dailyrainin,SoftwareType,DateUTC
2013-08-04 00:03:00,81.0,76.0,30.06,SSW,198,0.0,0.0,86,0.00,,,0.00,,2013-08-04 04:03:00,
2013-08-04 00:12:00,82.0,77.0,30.07,SSW,198,0.0,0.0,86,0.00,,,0.00,,2013-08-04 04:12:00,
2013-08-04 00:22:00,82.0,77.0,30.07,SSW,198,0.0,0.0,86,0.00,,,0.00,,2013-08-04 04:22:00,
2013-08-04 00:32:00,82.0,77.0,30.07,SSW,198,0.0,0.0,86,0.00,,,0.00,,2013-08-04 04:32:00,
2013-08-04 00:42:00,82.0,77.0,30.07,SSW,198,0.0,0.0,86,0.00,,,0.00,,2013-08-04 04:42:00,
2013-08-04 00:52:00,81.0,76.0,30.06,SSW,198,0.0,0.0,86,0.00,,,0.00,,2013-08-04 04:52:00,
2013-08-04 01:02:00,82.0,77.0,30.06,SSW,198,1.0,2.0,85,0.00,,,0.00,,2013-08-04 05:02:00,
2013-08-04 01:12:00,82.0,77.0,30.06,SSW,198,0.0,2.0,85,0.00,,,0.00,,2013-08-04 05:12:00,
2013-08-04 01:22:00,82.0,77.0,30.06,SSW,198,0.0,0.0,84,0.00,,,0.00,,2013-08-04 05:22:00,
2013-08-04 01:32:00,82.0,77.0,30.06,SSW,198,0.0,0.0,85,0.00,,,0.00,,2013-08-04 05:32:00,
2013-08-04 01:42:00,82.0,77.0,30.06,SSW,198,0.0,0.0,85,0.00,,,0.00,,2013-08-04 05:42:00,
2013-08-04 01:52:00,81.0,77.0,30.06,ESE,122,0.0,0.0,87,0.00,,,0.00,,2013-08-04 05:52:00,
2013-08-04 02:02:00,81.0,77.0,30.05,ESE,122,0.0,0.0,87,0.00,,,0.00,,2013-08-04 06:02:00,
2013-08-04 02:12:00,81.0,77.0,30.05,ESE,122,0.0,0.0,88,0.00,,,0.00,,2013-08-04 06:12:00,
2013-08-04 02:22:00,81.0,77.0,30.04,ESE,122,0.0,2.0,89,0.00,,,0.00,,2013-08-04 06:22:00,
2013-08-04 02:32:00,81.0,77.0,30.03,ESE,122,0.0,2.0,89,0.00,,,0.00,,2013-08-04 06:32:00,
2013-08-04 02:43:00,81.0,77.0,30.03,ESE,122,0.0,0.0,89,0.00,,,0.00,,2013-08-04 06:43:00,
2013-08-04 02:52:00,81.0,77.0,30.03,ESE,122,0.0,1.0,88,0.00,,,0.00,,2013-08-04 06:52:00,
2013-08-04 03:02:00,81.0,77.0,30.03,ESE,122,0.0,2.0,88,0.00,,,0.00,,2013-08-04 07:02:00,
2013-08-04 03:12:00,81.0,77.0,30.02,ESE,122,0.0,0.0,89,0.00,,,0.00,,2013-08-04 07:12:00,
2013-08-04 03:22:00,81.0,77.0,30.02,ESE,122,0.0,0.0,89,0.00,,,0.00,,2013-08-04 07:22:00,
2013-08-04 03:33:00,81.0,77.0,30.01,ESE,122,0.0,0.0,89,0.00,,,0.00,,2013-08-04 07:33:00,
2013-08-04 03:43:00,81.0,77.0,30.02,ESE,122,0.0,0.0,89,0.00,,,0.00,,2013-08-04 07:43:00,
2013-08-04 03:53:00,81.0,77.0,30.01,ESE,122,0.0,0.0,89,0.00,,,0.00,,2013-08-04 07:53:00,
2013-08-04 04:02:00,81.0,78.0,30.01,ESE,122,0.0,0.0,90,0.00,,,0.00,,2013-08-04 08:02:00,
2013-08-04 04:12:00,81.0,78.0,30.01,ESE,122,0.0,0.0,90,0.00,,,0.00,,2013-08-04 08:12:00,
2013-08-04 04:23:00,80.0,77.0,30.01,ESE,122,0.0,0.0,90,0.00,,,0.00,,2013-08-04 08:23:00,
2013-08-04 04:33:00,80.0,77.0,30.01,ESE,122,0.0,1.0,90,0.00,,,0.00,,2013-08-04 08:33:00,
2013-08-04 04:43:00,80.0,77.0,30.01,ESE,122,0.0,0.0,91,0.00,,,0.00,,2013-08-04 08:43:00,
2013-08-04 04:53:00,80.0,77.0,30.01,ESE,122,0.0,0.0,91,0.00,,,0.00,,2013-08-04 08:53:00,
2013-08-04 05:02:00,80.0,77.0,30.01,ESE,122,0.0,0.0,91,0.00,,,0.00,,2013-08-04 09:02:00,
2013-08-04 05:12:00,80.0,77.0,30.01,ESE,122,0.0,0.0,91,0.00,,,0.00,,2013-08-04 09:12:00,
2013-08-04 05:22:00,79.0,76.0,30.01,ESE,122,0.0,0.0,91,0.00,,,0.00,,2013-08-04 09:22:00,
2013-08-04 05:32:00,79.0,76.0,30.01,ESE,122,0.0,0.0,91,0.00,,,0.00,,2013-08-04 09:32:00,
2013-08-04 05:43:00,79.0,76.0,30.01,ESE,122,0.0,0.0,92,0.00,,,0.00,,2013-08-04 09:43:00,
2013-08-04 05:52:00,79.0,76.0,30.01,ESE,122,0.0,0.0,92,0.00,,,0.00,,2013-08-04 09:52:00,
2013-08-04 06:02:00,79.0,76.0,30.01,ESE,122,0.0,1.0,92,0.00,,,0.00,,2013-08-04 10:02:00,
2013-08-04 06:12:00,79.0,76.0,30.01,ESE,122,1.0,3.0,92,0.00,,,0.00,,2013-08-04 10:12:00,
2013-08-04 06:22:00,79.0,76.0,30.01,ESE,122,0.0,0.0,92,0.00,,,0.00,,2013-08-04 10:22:00,
2013-08-04 06:32:00,79.0,76.0,30.01,ESE,122,0.0,0.0,92,0.00,,,0.00,,2013-08-04 10:32:00,
2013-08-04 06:42:00,79.0,76.0,30.02,ESE,122,0.0,0.0,92,0.00,,,0.00,,2013-08-04 10:42:00,
2013-08-04 06:53:00,79.0,76.0,30.02,ESE,122,0.0,1.0,92,0.00,,,0.00,,2013-08-04 10:53:00,
2013-08-04 07:02:00,79.0,77.0,30.02,ESE,122,0.0,1.0,93,0.00,,,0.00,,2013-08-04 11:02:00,
2013-08-04 07:22:00,79.0,77.0,30.03,ESE,122,0.0,0.0,93,0.00,,,0.00,,2013-08-04 11:22:00,
2013-08-04 07:32:00,79.0,77.0,30.03,ESE,122,0.0,0.0,93,0.00,,,0.00,,2013-08-04 11:32:00,
2013-08-04 07:42:00,79.0,77.0,30.03,ESE,122,0.0,0.0,93,0.00,,,0.00,,2013-08-04 11:42:00,
2013-08-04 07:53:00,79.0,77.0,30.03,ESE,122,0.0,0.0,93,0.00,,,0.00,,2013-08-04 11:53:00,
2013-08-04 08:02:00,79.0,77.0,30.04,ESE,122,0.0,0.0,93,0.00,,,0.00,,2013-08-04 12:02:00,
2013-08-04 08:12:00,80.0,77.0,30.04,ESE,122,0.0,0.0,92,0.00,,,0.00,,2013-08-04 12:12:00,
2013-08-04 08:22:00,80.0,77.0,30.05,ESE,122,0.0,0.0,92,0.00,,,0.00,,2013-08-04 12:22:00,
2013-08-04 08:33:00,81.0,79.0,30.05,NNE,15,0.0,3.0,93,0.00,,,0.00,,2013-08-04 12:33:00,
2013-08-04 08:43:00,81.0,78.0,30.05,NNE,24,1.0,4.0,91,0.00,,,0.00,,2013-08-04 12:43:00,
2013-08-04 08:53:00,82.0,79.0,30.05,NNE,28,1.0,4.0,90,0.00,,,0.00,,2013-08-04 12:53:00,
2013-08-04 09:02:00,82.0,78.0,30.05,NNE,28,2.0,3.0,89,0.00,,,0.00,,2013-08-04 13:02:00,
2013-08-04 09:12:00,83.0,79.0,30.05,NNE,28,0.0,3.0,88,0.00,,,0.00,,2013-08-04 13:12:00,
2013-08-04 09:22:00,84.0,79.0,30.05,NW,317,2.0,4.0,86,0.00,,,0.00,,2013-08-04 13:22:00,
2013-08-04 09:32:00,83.0,78.0,30.05,NW,324,0.0,2.0,84,0.00,,,0.00,,2013-08-04 13:32:00,
2013-08-04 09:52:00,85.0,79.0,30.05,NW,324,0.0,0.0,82,0.00,,,0.00,,2013-08-04 13:52:00,
2013-08-04 10:02:00,86.0,79.0,30.05,SSW,209,0.0,3.0,81,0.00,,,0.00,,2013-08-04 14:02:00,
2013-08-04 10:12:00,87.0,79.0,30.05,NNW,338,2.0,4.0,78,0.00,,,0.00,,2013-08-04 14:12:00,
2013-08-04 10:22:00,85.0,76.0,30.05,SW,231,4.0,16.0,75,0.01,,,0.01,,2013-08-04 14:22:00,
2013-08-04 10:32:00,84.0,78.0,30.05,West,265,0.0,3.0,82,0.01,,,0.01,,2013-08-04 14:32:00,
2013-08-04 10:43:00,85.0,79.0,30.05,WNW,290,2.0,5.0,83,0.01,,,0.01,,2013-08-04 14:43:00,
2013-08-04 10:53:00,85.0,78.0,30.05,NW,317,4.0,7.0,79,0.01,,,0.01,,2013-08-04 14:53:00,
2013-08-04 11:02:00,85.0,78.0,30.05,WNW,300,3.0,7.0,79,0.01,,,0.01,,2013-08-04 15:02:00,
2013-08-04 11:12:00,85.0,77.0,30.06,West,272,4.0,7.0,78,0.01,,,0.01,,2013-08-04 15:12:00,
2013-08-04 11:22:00,85.0,77.0,30.06,West,259,6.0,9.0,77,0.00,,,0.01,,2013-08-04 15:22:00,
2013-08-04 11:32:00,85.0,77.0,30.06,West,279,4.0,8.0,78,0.00,,,0.01,,2013-08-04 15:32:00,
2013-08-04 11:43:00,87.0,79.0,30.06,NW,320,3.0,8.0,77,0.00,,,0.01,,2013-08-04 15:43:00,
2013-08-04 11:53:00,87.0,78.0,30.06,WNW,291,5.0,10.0,76,0.00,,,0.01,,2013-08-04 15:53:00,
2013-08-04 12:02:00,86.0,75.0,30.06,West,277,6.0,11.0,71,0.00,,,0.01,,2013-08-04 16:02:00,
2013-08-04 12:12:00,87.0,79.0,30.05,West,281,4.0,12.0,77,0.00,,,0.01,,2013-08-04 16:12:00,
2013-08-04 12:22:00,87.0,79.0,30.05,NW,325,3.0,6.0,77,0.00,,,0.01,,2013-08-04 16:22:00,
2013-08-04 12:33:00,87.0,77.0,30.05,West,269,6.0,8.0,73,0.00,,,0.01,,2013-08-04 16:33:00,
2013-08-04 12:42:00,85.0,78.0,30.05,West,278,3.0,9.0,79,0.12,,,0.13,,2013-08-04 16:42:00,
2013-08-04 12:53:00,84.0,79.0,30.04,West,275,0.0,2.0,84,0.13,,,0.14,,2013-08-04 16:53:00,
2013-08-04 13:02:00,84.0,79.0,30.04,NE,34,1.0,2.0,85,0.13,,,0.14,,2013-08-04 17:02:00,
2013-08-04 13:12:00,83.0,78.0,30.04,North,5,0.0,1.0,84,0.13,,,0.14,,2013-08-04 17:12:00,
2013-08-04 13:22:00,84.0,78.0,30.04,WSW,241,4.0,7.0,83,0.13,,,0.14,,2013-08-04 17:22:00,
2013-08-04 13:32:00,85.0,79.0,30.03,West,275,3.0,12.0,82,0.13,,,0.14,,2013-08-04 17:32:00,
2013-08-04 13:43:00,85.0,78.0,30.03,West,280,4.0,9.0,81,0.01,,,0.14,,2013-08-04 17:43:00,
2013-08-04 13:53:00,85.0,77.0,30.03,WSW,257,4.0,8.0,78,0.00,,,0.14,,2013-08-04 17:53:00,
2013-08-04 14:02:00,86.0,78.0,30.03,West,271,3.0,7.0,77,0.00,,,0.14,,2013-08-04 18:02:00,
2013-08-04 14:12:00,87.0,79.0,30.02,West,263,4.0,8.0,78,0.00,,,0.14,,2013-08-04 18:12:00,
2013-08-04 14:23:00,88.0,79.0,30.01,WSW,257,5.0,10.0,75,0.00,,,0.14,,2013-08-04 18:23:00,
2013-08-04 14:33:00,88.0,79.0,30.01,West,267,4.0,9.0,74,0.00,,,0.14,,2013-08-04 18:33:00,
2013-08-04 14:43:00,87.0,79.0,30.01,West,280,5.0,13.0,77,0.00,,,0.14,,2013-08-04 18:43:00,
2013-08-04 14:52:00,87.0,79.0,30.01,WNW,302,6.0,11.0,77,0.00,,,0.14,,2013-08-04 18:52:00,
2013-08-04 15:02:00,87.0,78.0,30.00,West,267,5.0,11.0,76,0.00,,,0.14,,2013-08-04 19:02:00,
2013-08-04 15:12:00,87.0,79.0,30.00,NW,309,5.0,12.0,77,0.00,,,0.14,,2013-08-04 19:12:00,
2013-08-04 15:22:00,86.0,78.0,29.99,West,276,6.0,12.0,77,0.00,,,0.14,,2013-08-04 19:22:00,
2013-08-04 15:32:00,86.0,78.0,30.00,West,260,6.0,10.0,76,0.00,,,0.14,,2013-08-04 19:32:00,
2013-08-04 15:43:00,86.0,78.0,29.99,West,275,6.0,10.0,77,0.00,,,0.14,,2013-08-04 19:43:00,
2013-08-04 15:53:00,86.0,78.0,29.99,WSW,257,7.0,12.0,77,0.00,,,0.14,,2013-08-04 19:53:00,
2013-08-04 16:02:00,86.0,78.0,29.99,West,261,6.0,10.0,77,0.00,,,0.14,,2013-08-04 20:02:00,
2013-08-04 16:12:00,86.0,78.0,29.99,West,263,5.0,8.0,77,0.00,,,0.14,,2013-08-04 20:12:00,
2013-08-04 16:22:00,86.0,78.0,29.98,West,275,4.0,10.0,77,0.00,,,0.14,,2013-08-04 20:22:00,
2013-08-04 16:33:00,86.0,78.0,29.98,West,277,5.0,9.0,78,0.00,,,0.14,,2013-08-04 20:33:00,
2013-08-04 16:43:00,86.0,79.0,29.98,WSW,250,4.0,9.0,79,0.00,,,0.14,,2013-08-04 20:43:00,
2013-08-04 16:53:00,86.0,79.0,29.98,WNW,300,4.0,9.0,79,0.00,,,0.14,,2013-08-04 20:53:00,
2013-08-04 17:02:00,86.0,78.0,29.98,West,271,5.0,11.0,78,0.00,,,0.14,,2013-08-04 21:02:00,
2013-08-04 17:12:00,86.0,78.0,29.98,West,268,5.0,8.0,78,0.00,,,0.14,,2013-08-04 21:12:00,
2013-08-04 17:22:00,86.0,78.0,29.98,WNW,292,4.0,10.0,78,0.00,,,0.14,,2013-08-04 21:22:00,
2013-08-04 17:32:00,86.0,78.0,29.98,WSW,250,4.0,9.0,76,0.00,,,0.14,,2013-08-04 21:32:00,
2013-08-04 17:43:00,86.0,78.0,29.98,West,268,4.0,8.0,78,0.00,,,0.14,,2013-08-04 21:43:00,
2013-08-04 17:53:00,86.0,79.0,29.99,WSW,256,3.0,8.0,79,0.00,,,0.14,,2013-08-04 21:53:00,
2013-08-04 18:02:00,86.0,78.0,29.99,West,268,4.0,7.0,78,0.00,,,0.14,,2013-08-04 22:02:00,
2013-08-04 18:12:00,86.0,78.0,29.98,West,273,5.0,7.0,77,0.00,,,0.14,,2013-08-04 22:12:00,
2013-08-04 18:22:00,85.0,77.0,29.98,WNW,286,4.0,7.0,77,0.00,,,0.14,,2013-08-04 22:22:00,
2013-08-04 18:32:00,86.0,78.0,29.98,WSW,258,3.0,7.0,77,0.00,,,0.14,,2013-08-04 22:32:00,
2013-08-04 18:43:00,86.0,78.0,29.98,NW,309,3.0,6.0,78,0.00,,,0.14,,2013-08-04 22:43:00,
2013-08-04 18:53:00,85.0,77.0,29.98,West,260,3.0,7.0,77,0.00,,,0.14,,2013-08-04 22:53:00,
2013-08-04 19:02:00,86.0,78.0,29.98,WSW,240,3.0,7.0,77,0.00,,,0.14,,2013-08-04 23:02:00,
2013-08-04 19:12:00,86.0,77.0,29.98,WNW,298,3.0,6.0,75,0.00,,,0.14,,2013-08-04 23:12:00,
2013-08-04 19:22:00,86.0,78.0,29.98,West,279,2.0,5.0,76,0.00,,,0.14,,2013-08-04 23:22:00,
2013-08-04 19:32:00,86.0,78.0,29.98,West,273,4.0,7.0,78,0.00,,,0.14,,2013-08-04 23:32:00,
2013-08-04 19:43:00,85.0,77.0,29.98,West,281,2.0,7.0,77,0.00,,,0.14,,2013-08-04 23:43:00,
2013-08-04 19:53:00,85.0,77.0,29.98,West,270,1.0,6.0,77,0.00,,,0.14,,2013-08-04 23:53:00,
2013-08-04 20:02:00,85.0,77.0,29.98,WNW,282,3.0,7.0,78,0.00,,,0.14,,2013-08-05 00:02:00,
2013-08-04 20:12:00,85.0,77.0,29.98,West,275,2.0,7.0,78,0.00,,,0.14,,2013-08-05 00:12:00,
2013-08-04 20:22:00,85.0,77.0,29.99,West,266,3.0,6.0,77,0.00,,,0.14,,2013-08-05 00:22:00,
2013-08-04 20:33:00,85.0,77.0,29.99,West,265,2.0,4.0,77,0.00,,,0.14,,2013-08-05 00:33:00,
2013-08-04 20:42:00,85.0,77.0,29.99,NW,315,1.0,5.0,78,0.00,,,0.14,,2013-08-05 00:42:00,
2013-08-04 20:52:00,85.0,77.0,29.99,West,262,1.0,4.0,78,0.00,,,0.14,,2013-08-05 00:52:00,
2013-08-04 21:02:00,85.0,78.0,29.99,West,262,0.0,3.0,80,0.00,,,0.14,,2013-08-05 01:02:00,
2013-08-04 21:12:00,84.0,77.0,29.99,West,262,1.0,2.0,80,0.00,,,0.14,,2013-08-05 01:12:00,
2013-08-04 21:22:00,84.0,78.0,30.00,West,265,2.0,4.0,81,0.00,,,0.14,,2013-08-05 01:22:00,
2013-08-04 21:33:00,84.0,78.0,30.00,West,275,2.0,5.0,81,0.00,,,0.14,,2013-08-05 01:33:00,
2013-08-04 21:42:00,84.0,77.0,30.00,WSW,240,0.0,2.0,80,0.00,,,0.14,,2013-08-05 01:42:00,
2013-08-04 21:52:00,84.0,77.0,30.00,WSW,240,0.0,0.0,80,0.00,,,0.14,,2013-08-05 01:52:00,
2013-08-04 22:02:00,84.0,77.0,30.00,WSW,240,0.0,0.0,80,0.00,,,0.14,,2013-08-05 02:02:00,
2013-08-04 22:12:00,83.0,77.0,30.00,WSW,240,0.0,2.0,82,0.00,,,0.14,,2013-08-05 02:12:00,
2013-08-04 22:22:00,83.0,77.0,30.00,SSW,201,0.0,1.0,82,0.00,,,0.14,,2013-08-05 02:22:00,
2013-08-04 22:33:00,83.0,77.0,30.00,SSW,201,0.0,0.0,83,0.00,,,0.14,,2013-08-05 02:33:00,
2013-08-04 22:43:00,83.0,77.0,30.01,SSW,201,0.0,0.0,83,0.00,,,0.14,,2013-08-05 02:43:00,
2013-08-04 22:53:00,83.0,78.0,30.01,SSW,201,0.0,0.0,84,0.00,,,0.14,,2013-08-05 02:53:00,
2013-08-04 23:02:00,83.0,78.0,30.01,SSW,202,0.0,2.0,85,0.00,,,0.14,,2013-08-05 03:02:00,
2013-08-04 23:12:00,82.0,77.0,30.01,SSW,202,0.0,0.0,85,0.00,,,0.14,,2013-08-05 03:12:00,
2013-08-04 23:22:00,82.0,77.0,30.01,SSW,202,0.0,0.0,85,0.00,,,0.14,,2013-08-05 03:22:00,
2013-08-04 23:32:00,83.0,78.0,30.01,WSW,247,0.0,3.0,85,0.00,,,0.14,,2013-08-05 03:32:00,
2013-08-04 23:53:00,83.0,78.0,30.01,WSW,255,2.0,3.0,85,0.00,,,0.14,,2013-08-05 03:53:00,